Time;durP1;ratioP1;P1;durP2;ratioP2;P2;SDS_P1;SDS_P2;PMS_P1;PMS_P2;Temp;Humidity;BMP_temperature;BMP_pressure;BME280_temperature;BME280_humidity;BME280_pressure;Samples;Min_cycle;Max_cycle;Signal;HPM_P1;HPM_P2
2022/08/13 00:00:11;;;;;;;9.00;3.10;;;;;;;17.18;85.14;100542.61;104682;1277;63998;-61
2022/08/13 00:03:10;;;;;;;7.60;2.80;;;;;;;17.13;85.43;100533.13;104754;1274;74738;-58
2022/08/13 00:09:44;;;;;;;8.20;2.60;;;;;;;17.13;85.36;100538.39;104793;1274;73244;-61
2022/08/13 00:15:43;;;;;;;7.40;2.40;;;;;;;17.07;85.33;100540.20;104652;1274;60545;-61
2022/08/13 00:18:36;;;;;;;9.10;2.70;;;;;;;17.05;85.25;100541.66;104568;1274;74698;-60
2022/08/13 00:21:25;;;;;;;7.20;2.60;;;;;;;17.05;85.48;100540.55;104751;1274;68800;-61
2022/08/13 00:24:33;;;;;;;7.70;3.00;;;;;;;17.05;85.88;100541.96;104904;1274;73451;-60
2022/08/13 00:27:24;;;;;;;8.30;2.50;;;;;;;17.06;86.02;100543.17;104949;1274;60334;-62
2022/08/13 00:30:17;;;;;;;7.70;2.30;;;;;;;17.06;86.63;100542.07;104971;1274;60812;-60
2022/08/13 00:33:22;;;;;;;7.10;2.60;;;;;;;17.06;87.31;100540.41;104740;1274;74413;-62
2022/08/13 00:36:34;;;;;;;7.70;2.90;;;;;;;17.08;87.88;100542.80;104591;1275;68625;-59
2022/08/13 00:39:27;;;;;;;8.40;2.70;;;;;;;17.08;87.80;100544.23;104650;1278;73699;-60
2022/08/13 00:42:38;;;;;;;7.40;2.50;;;;;;;17.07;87.64;100542.35;104715;1274;60475;-61
2022/08/13 00:45:38;;;;;;;9.00;2.90;;;;;;;17.07;87.94;100539.42;104554;1275;60942;-60
2022/08/13 00:48:46;;;;;;;8.20;3.20;;;;;;;17.08;88.17;100538.80;104834;1274;73025;-62
2022/08/13 00:51:42;;;;;;;6.80;2.80;;;;;;;17.10;88.44;100539.73;104750;1274;68428;-61
2022/08/13 00:54:48;;;;;;;7.70;2.80;;;;;;;17.12;88.39;100537.41;104770;1274;72621;-60
2022/08/13 00:57:47;;;;;;;8.20;2.70;;;;;;;17.12;88.22;100537.31;104591;1274;60569;-62
2022/08/13 01:00:40;;;;;;;6.50;2.80;;;;;;;17.13;88.14;100535.87;104712;1274;60476;-60
2022/08/13 01:03:37;;;;;;;7.70;2.80;;;;;;;17.12;88.30;100536.40;104868;1274;74585;-59
2022/08/13 01:06:47;;;;;;;7.50;3.00;;;;;;;17.10;88.68;100532.52;104655;1274;65916;-60
2022/08/13 01:09:40;;;;;;;8.30;2.80;;;;;;;17.10;88.84;100532.88;104609;1274;72461;-61
2022/08/13 01:12:51;;;;;;;8.60;2.80;;;;;;;17.10;88.88;100530.76;104688;1274;60542;-61
2022/08/13 01:15:41;;;;;;;8.20;3.20;;;;;;;17.09;88.41;100527.02;104802;1275;60472;-64
2022/08/13 01:18:47;;;;;;;8.20;2.90;;;;;;;17.09;88.21;100522.59;104512;1274;74795;-60
2022/08/13 01:21:44;;;;;;;9.30;2.90;;;;;;;17.09;88.07;100516.73;104575;1274;67385;-60
2022/08/13 01:24:32;;;;;;;10.90;3.00;;;;;;;17.08;88.10;100514.27;104600;1274;73302;-63
2022/08/13 01:27:25;;;;;;;9.50;3.00;;;;;;;17.07;88.29;100510.79;104733;1274;60502;-61
2022/08/13 01:30:22;;;;;;;9.20;3.40;;;;;;;17.06;88.30;100510.48;104430;1274;60627;-62
2022/08/13 01:33:17;;;;;;;8.40;3.60;;;;;;;17.05;88.35;100505.20;104635;1274;75119;-61
2022/08/13 01:36:08;;;;;;;10.30;3.50;;;;;;;17.06;88.69;100508.23;104574;1274;68750;-63
2022/08/13 01:39:05;;;;;;;7.00;3.20;;;;;;;17.05;89.04;100506.00;104645;1274;74471;-64
2022/08/13 01:42:20;;;;;;;10.80;3.40;;;;;;;17.03;89.21;100504.20;104730;1274;60469;-61
2022/08/13 01:45:26;;;;;;;8.40;3.60;;;;;;;17.01;89.03;100508.14;104833;1275;60749;-62
2022/08/13 01:51:48;;;;;;;8.70;3.70;;;;;;;16.96;89.36;100503.55;104870;1274;67236;-62
2022/08/13 01:54:39;;;;;;;7.20;3.10;;;;;;;16.93;89.00;100502.05;104475;1274;73436;-58
2022/08/13 01:57:33;;;;;;;8.30;3.60;;;;;;;16.92;89.31;100498.85;104553;1274;60521;-60
2022/08/13 02:00:31;;;;;;;9.70;3.10;;;;;;;16.90;89.32;100497.23;104606;1274;60787;-60
2022/08/13 02:03:20;;;;;;;9.30;3.60;;;;;;;16.89;89.57;100496.77;104639;1277;74668;-62
2022/08/13 02:06:11;;;;;;;8.30;3.20;;;;;;;16.88;89.42;100493.81;104402;1275;68948;-58
2022/08/13 02:09:12;;;;;;;8.10;3.40;;;;;;;16.86;89.61;100496.79;104555;1274;71035;-60
2022/08/13 02:12:20;;;;;;;7.80;3.20;;;;;;;16.88;89.60;100504.38;104734;1274;60508;-61
2022/08/13 02:15:22;;;;;;;8.20;3.30;;;;;;;16.87;89.39;100501.77;104586;1274;60457;-60
2022/08/13 02:18:21;;;;;;;8.30;3.50;;;;;;;16.86;89.36;100502.35;104606;1275;73579;-62
2022/08/13 02:21:11;;;;;;;9.40;3.70;;;;;;;16.87;89.65;100506.04;104652;1275;69806;-61
2022/08/13 02:24:14;;;;;;;7.70;3.50;;;;;;;16.85;89.73;100502.25;104667;1274;73488;-62
2022/08/13 02:27:09;;;;;;;9.30;3.80;;;;;;;16.86;89.97;100503.45;104728;1274;60523;-62
2022/08/13 02:30:00;;;;;;;10.00;3.60;;;;;;;16.75;89.58;100488.39;104709;1274;60468;-61
2022/08/13 02:32:49;;;;;;;11.00;3.30;;;;;;;16.82;89.28;100502.77;104725;1274;75481;-62
2022/08/13 02:35:37;;;;;;;8.30;3.40;;;;;;;16.79;89.22;100499.08;104745;1274;68625;-63
2022/08/13 02:38:34;;;;;;;9.20;3.00;;;;;;;16.76;89.08;100495.95;104645;1277;71340;-62
2022/08/13 02:44:40;;;;;;;7.40;3.50;;;;;;;16.69;88.65;100488.98;104649;1275;60479;-62
2022/08/13 02:47:32;;;;;;;10.10;3.80;;;;;;;16.65;88.78;100486.98;104518;1274;72435;-63
2022/08/13 02:50:33;;;;;;;8.50;3.00;;;;;;;16.61;89.06;100488.01;104673;1274;68435;-63
2022/08/13 02:53:31;;;;;;;6.70;3.10;;;;;;;16.56;89.20;100490.90;104833;1274;74419;-63
2022/08/13 02:56:23;;;;;;;11.60;3.80;;;;;;;16.52;89.84;100491.69;104814;1275;60459;-62
2022/08/13 02:59:15;;;;;;;10.00;3.20;;;;;;;16.48;90.10;100494.93;104917;1274;60559;-61
2022/08/13 03:02:23;;;;;;;9.60;3.40;;;;;;;16.45;90.59;100495.22;104787;1275;75911;-61
2022/08/13 03:05:16;;;;;;;9.90;3.60;;;;;;;16.43;90.87;100494.30;104742;1275;69509;-61
2022/08/13 03:08:06;;;;;;;9.30;3.40;;;;;;;16.43;91.38;100494.88;104552;1274;72475;-60
2022/08/13 03:10:59;;;;;;;8.80;3.10;;;;;;;16.43;91.68;100493.84;104625;1274;60405;-62
2022/08/13 03:14:03;;;;;;;8.70;3.80;;;;;;;16.42;91.89;100491.70;104757;1274;60444;-61
2022/08/13 03:16:56;;;;;;;10.10;3.30;;;;;;;16.42;91.79;100490.81;104818;1274;73540;-63
2022/08/13 03:19:46;;;;;;;8.20;3.60;;;;;;;16.41;92.10;100482.35;104722;1274;69665;-61
2022/08/13 03:22:57;;;;;;;6.90;2.90;;;;;;;16.40;91.82;100482.12;104709;1274;73490;-65
2022/08/13 03:25:46;;;;;;;8.10;3.50;;;;;;;16.38;91.57;100483.17;104730;1275;60471;-62
2022/08/13 03:28:34;;;;;;;7.90;3.40;;;;;;;16.36;91.65;100483.19;104656;1277;62117;-62
2022/08/13 03:31:27;;;;;;;10.70;3.40;;;;;;;16.33;92.46;100476.61;104700;1274;72983;-62
2022/08/13 03:34:23;;;;;;;9.70;3.40;;;;;;;16.31;93.30;100474.66;104876;1274;68549;-60
2022/08/13 03:37:15;;;;;;;8.50;3.60;;;;;;;16.30;94.08;100473.48;104676;1274;74496;-63
2022/08/13 03:40:05;;;;;;;8.70;3.10;;;;;;;16.29;94.09;100469.66;105062;1274;60383;-60
2022/08/13 03:43:07;;;;;;;8.00;2.80;;;;;;;16.29;94.04;100466.84;105109;1274;60983;-60
2022/08/13 03:46:02;;;;;;;9.70;3.20;;;;;;;16.28;94.18;100458.11;104684;1277;75042;-62
2022/08/13 03:48:52;;;;;;;10.90;3.50;;;;;;;16.30;94.14;100455.63;104923;1274;68530;-61
2022/08/13 03:51:41;;;;;;;9.30;3.70;;;;;;;16.30;94.39;100451.68;104706;1274;73384;-60
2022/08/13 03:54:34;;;;;;;10.50;4.10;;;;;;;16.31;94.53;100450.45;104884;1274;60502;-62
2022/08/13 03:57:24;;;;;;;10.90;4.40;;;;;;;16.37;94.63;100457.70;104923;1274;60572;-62
2022/08/13 04:00:13;;;;;;;8.40;3.40;;;;;;;16.44;95.22;100461.80;104757;1274;75643;-62
2022/08/13 04:03:24;;;;;;;8.30;4.20;;;;;;;16.55;95.30;100461.84;104760;1274;68466;-63
2022/08/13 04:06:20;;;;;;;8.90;4.30;;;;;;;16.71;95.08;100462.64;104813;1277;73425;-64
2022/08/13 04:09:14;;;;;;;7.90;3.10;;;;;;;16.86;94.91;100457.95;104661;1274;60588;-63
2022/08/13 04:12:12;;;;;;;9.80;3.80;;;;;;;17.00;94.46;100451.27;104706;1274;60519;-62
2022/08/13 04:15:06;;;;;;;7.80;3.80;;;;;;;17.12;93.46;100449.88;104929;1274;74464;-64
2022/08/13 04:17:54;;;;;;;13.40;3.90;;;;;;;17.20;92.56;100445.63;104834;1274;67746;-63
2022/08/13 04:20:49;;;;;;;10.50;4.00;;;;;;;17.30;92.19;100456.33;104797;1274;74489;-62
2022/08/13 04:23:39;;;;;;;9.80;4.30;;;;;;;17.41;92.56;100460.65;104598;1274;60550;-65
2022/08/13 04:26:32;;;;;;;8.60;4.20;;;;;;;17.53;92.52;100465.16;104719;1274;62088;-64
2022/08/13 04:29:20;;;;;;;8.70;3.90;;;;;;;17.65;92.55;100461.39;104665;1274;74566;-65
2022/08/13 04:32:08;;;;;;;11.10;3.90;;;;;;;17.79;92.82;100465.10;104718;1274;68116;-64
2022/08/13 04:35:13;;;;;;;8.10;3.00;;;;;;;17.93;92.52;100463.87;104723;1274;73440;-63
2022/08/13 04:38:05;;;;;;;8.00;3.30;;;;;;;18.07;91.70;100456.70;104554;1275;60451;-63
2022/08/13 04:40:54;;;;;;;9.00;3.30;;;;;;;18.20;91.59;100453.39;104664;1274;60505;-65
2022/08/13 04:43:46;;;;;;;8.40;3.40;;;;;;;18.33;91.46;100453.39;104652;1274;75473;-64
2022/08/13 04:46:48;;;;;;;10.10;3.40;;;;;;;18.49;90.96;100452.48;104718;1274;68639;-62
2022/08/13 04:49:36;;;;;;;8.50;3.40;;;;;;;18.65;90.39;100458.55;104531;1276;73467;-62
2022/08/13 04:52:30;;;;;;;9.20;3.10;;;;;;;18.80;89.63;100450.73;104702;1276;61253;-63
2022/08/13 04:55:18;;;;;;;8.70;3.00;;;;;;;18.93;88.94;100448.39;104586;1277;60658;-62
2022/08/13 04:58:08;;;;;;;9.20;2.80;;;;;;;19.04;88.41;100449.91;104483;1276;74469;-71
2022/08/13 05:00:57;;;;;;;9.50;2.90;;;;;;;19.22;87.92;100456.31;104546;1276;68459;-72
2022/08/13 05:03:45;;;;;;;8.70;2.70;;;;;;;19.41;87.06;100447.77;104523;1276;73483;-72
2022/08/13 05:06:42;;;;;;;8.20;2.60;;;;;;;19.58;86.48;100443.55;104692;1276;60346;-75
2022/08/13 05:09:31;;;;;;;7.50;2.50;;;;;;;19.71;85.60;100444.80;104625;1276;60898;-72
2022/08/13 05:12:19;;;;;;;9.30;2.50;;;;;;;19.82;84.69;100445.58;104484;1276;75633;-70
2022/08/13 05:15:29;;;;;;;7.40;2.70;;;;;;;19.96;83.93;100437.84;104699;1277;68419;-71
2022/08/13 05:18:44;;;;;;;8.70;2.60;;;;;;;20.09;83.20;100434.13;104507;1278;74466;-72
2022/08/13 05:21:33;;;;;;;7.80;2.30;;;;;;;20.27;82.38;100432.83;104393;1277;60591;-72
2022/08/13 05:24:41;;;;;;;9.20;2.70;;;;;;;20.48;81.14;100430.48;104469;1277;60403;-72
2022/08/13 05:27:49;;;;;;;8.10;2.60;;;;;;;20.81;79.94;100430.36;103990;1277;1238109;-71
2022/08/13 05:30:40;;;;;;;10.40;2.40;;;;;;;21.37;77.41;100431.11;104701;1277;68342;-72
2022/08/13 05:33:30;;;;;;;9.30;2.50;;;;;;;22.30;74.23;100427.50;104900;1277;71884;-72
2022/08/13 05:36:31;;;;;;;10.10;2.40;;;;;;;23.60;69.96;100430.20;104792;1277;60472;-71
2022/08/13 05:39:40;;;;;;;6.10;1.90;;;;;;;24.98;64.53;100430.50;104800;1277;60566;-73
2022/08/13 05:42:39;;;;;;;7.50;2.30;;;;;;;26.24;60.61;100432.33;104549;1278;75839;-73
2022/08/13 05:45:30;;;;;;;8.90;1.90;;;;;;;27.54;56.59;100435.55;104838;1277;67314;-71
2022/08/13 05:48:42;;;;;;;8.50;1.60;;;;;;;28.72;51.91;100433.20;104815;1278;72912;-73
2022/08/13 05:51:33;;;;;;;5.90;1.50;;;;;;;29.81;49.10;100437.15;104725;1277;60796;-71
2022/08/13 05:54:42;;;;;;;7.80;1.60;;;;;;;30.90;45.00;100439.91;104443;1277;61082;-73
2022/08/13 05:57:50;;;;;;;7.00;1.50;;;;;;;31.88;42.74;100442.48;104330;1277;74662;-73
2022/08/13 06:04:00;;;;;;;7.00;1.30;;;;;;;33.32;37.84;100434.82;104626;1277;73516;-72
2022/08/13 06:07:11;;;;;;;6.90;1.40;;;;;;;33.90;36.74;100439.53;104329;1277;60517;-70
2022/08/13 06:09:59;;;;;;;7.20;1.30;;;;;;;34.37;35.30;100435.28;104306;1277;61056;-73
2022/08/13 06:12:47;;;;;;;7.80;1.70;;;;;;;34.72;33.98;100434.05;104613;1276;74712;-74
2022/08/13 06:15:57;;;;;;;9.50;1.70;;;;;;;34.95;33.05;100434.06;104881;1277;68065;-75
2022/08/13 06:18:52;;;;;;;10.70;2.20;;;;;;;35.36;33.07;100434.02;104922;1276;73347;-77
2022/08/13 06:22:04;;;;;;;10.40;2.20;;;;;;;35.97;32.15;100428.06;104875;1276;60456;-75
2022/08/13 06:24:52;;;;;;;6.80;1.50;;;;;;;36.45;31.19;100425.36;105123;1276;60502;-75
2022/08/13 06:27:43;;;;;;;9.50;1.60;;;;;;;36.74;29.84;100427.00;105103;1274;74963;-75
2022/08/13 06:30:45;;;;;;;8.00;1.40;;;;;;;36.70;29.63;100430.63;105089;1274;68746;-74
2022/08/13 06:33:38;;;;;;;9.30;1.40;;;;;;;36.95;29.41;100427.58;105112;1274;73503;-77
2022/08/13 06:36:58;;;;;;;8.20;1.30;;;;;;;37.37;28.90;100425.88;104973;1276;60826;-75
2022/08/13 06:39:52;;;;;;;7.90;1.50;;;;;;;37.72;28.15;100423.70;105114;1277;61138;-77
2022/08/13 06:42:49;;;;;;;7.30;1.30;;;;;;;38.09;27.60;100425.48;104611;1276;74315;-74
2022/08/13 06:45:46;;;;;;;7.50;1.20;;;;;;;38.27;26.29;100426.40;104973;1274;69219;-77
2022/08/13 06:48:39;;;;;;;9.40;1.40;;;;;;;38.39;26.37;100425.81;104674;1274;72050;-76
2022/08/13 06:51:28;;;;;;;6.70;1.40;;;;;;;38.67;25.80;100423.34;104693;1274;60594;-76
2022/08/13 06:54:24;;;;;;;6.50;1.40;;;;;;;38.90;25.44;100424.75;104731;1275;60363;-76
2022/08/13 06:57:19;;;;;;;6.20;1.20;;;;;;;39.08;24.49;100417.84;104662;1274;73448;-76
2022/08/13 07:00:10;;;;;;;7.80;1.30;;;;;;;39.22;24.20;100423.32;104599;1275;68718;-77
2022/08/13 07:03:18;;;;;;;8.60;1.30;;;;;;;39.37;23.85;100417.40;104618;1274;73376;-76
2022/08/13 07:06:17;;;;;;;8.30;1.30;;;;;;;39.35;23.37;100417.76;104642;1277;60809;-75
2022/08/13 07:09:06;;;;;;;7.10;1.10;;;;;;;39.43;23.59;100416.69;104775;1276;61012;-73
2022/08/13 07:11:58;;;;;;;9.00;1.30;;;;;;;39.55;23.30;100416.18;104637;1276;75414;-76
2022/08/13 07:14:46;;;;;;;8.60;1.50;;;;;;;39.61;22.86;100414.81;104838;1274;66789;-77
2022/08/13 07:17:48;;;;;;;7.70;1.30;;;;;;;39.66;22.96;100414.96;104897;1274;72667;-76
2022/08/13 07:20:42;;;;;;;9.60;2.10;;;;;;;39.83;22.93;100411.92;104638;1274;60419;-76
2022/08/13 07:23:30;;;;;;;8.90;1.50;;;;;;;40.08;22.65;100409.73;104573;1274;61608;-75
2022/08/13 07:26:38;;;;;;;12.20;3.70;;;;;;;40.41;22.53;100408.59;104849;1274;75552;-74
2022/08/13 07:29:36;;;;;;;8.60;1.20;;;;;;;40.63;22.20;100407.52;104707;1274;69574;-77
2022/08/13 07:32:39;;;;;;;7.60;1.20;;;;;;;40.86;22.07;100405.52;104637;1274;73339;-78
2022/08/13 07:35:37;;;;;;;9.20;1.30;;;;;;;41.19;21.70;100403.52;104862;1274;60810;-77
2022/08/13 07:38:43;;;;;;;7.40;1.10;;;;;;;41.37;21.09;100394.89;104609;1276;60549;-79
2022/08/13 07:41:34;;;;;;;6.60;1.30;;;;;;;41.40;20.86;100395.98;104879;1276;75001;-77
2022/08/13 07:44:42;;;;;;;8.30;1.60;;;;;;;41.28;20.68;100403.91;104951;1276;68727;-76
2022/08/13 07:47:52;;;;;;;7.50;1.40;;;;;;;41.38;20.99;100409.81;104877;1276;72914;-78
2022/08/13 07:51:03;;;;;;;9.50;2.30;;;;;;;41.36;20.93;100408.20;104461;1276;60421;-76
2022/08/13 07:53:55;;;;;;;7.40;1.60;;;;;;;41.31;20.71;100409.65;104559;1276;60555;-76
2022/08/13 07:56:47;;;;;;;9.10;1.90;;;;;;;41.35;20.78;100412.25;104433;1276;73444;-78
2022/08/13 07:59:42;;;;;;;7.60;1.40;;;;;;;41.39;20.87;100412.41;104569;1276;70032;-76
2022/08/13 08:03:01;;;;;;;9.00;1.50;;;;;;;41.37;20.66;100416.86;104801;1276;73111;-77
2022/08/13 08:05:52;;;;;;;8.00;1.10;;;;;;;41.35;20.22;100412.68;104813;1276;60832;-76
2022/08/13 08:08:42;;;;;;;6.60;1.00;;;;;;;41.18;20.30;100410.31;104654;1276;60723;-76
2022/08/13 08:14:41;;;;;;;9.10;1.30;;;;;;;41.09;20.19;100411.30;104776;1276;68158;-77
2022/08/13 08:17:42;;;;;;;6.30;1.00;;;;;;;40.83;20.58;100411.40;104907;1276;71570;-78
2022/08/13 08:21:08;;;;;;;10.90;1.50;;;;;;;40.77;20.55;100408.43;104544;1276;60470;-77
2022/08/13 08:24:17;;;;;;;11.50;2.00;;;;;;;40.67;20.51;100409.04;104894;1277;60412;-77
2022/08/13 08:27:19;;;;;;;9.00;1.40;;;;;;;40.70;20.71;100408.46;104568;1276;74601;-77
2022/08/13 08:30:28;;;;;;;10.70;1.20;;;;;;;40.54;20.58;100410.84;104921;1276;67879;-77
2022/08/13 08:33:27;;;;;;;8.00;1.20;;;;;;;40.51;20.29;100412.73;104906;1276;72035;-80
2022/08/13 08:36:42;;;;;;;8.30;1.30;;;;;;;40.40;20.43;100408.05;104728;1274;60588;-79
2022/08/13 08:42:45;;;;;;;8.40;1.20;;;;;;;40.40;20.33;100405.66;104777;1274;72669;-76
2022/08/13 08:45:54;;;;;;;10.70;1.40;;;;;;;40.57;20.11;100403.48;105267;1274;67868;-79
2022/08/13 08:49:05;;;;;;;8.20;1.70;;;;;;;40.60;20.56;100399.16;105808;1274;72188;-69
2022/08/13 08:52:13;;;;;;;8.00;1.60;;;;;;;40.36;20.86;100401.77;104777;1274;60557;-69
2022/08/13 08:55:04;;;;;;;7.10;1.40;;;;;;;40.09;20.94;100397.60;104716;1274;61079;-68
2022/08/13 08:58:11;;;;;;;7.60;1.50;;;;;;;39.95;21.09;100404.61;104828;1276;75118;-71
2022/08/13 09:01:24;;;;;;;7.50;1.30;;;;;;;39.86;21.01;100401.11;104789;1276;68276;-68
2022/08/13 09:04:13;;;;;;;8.60;2.40;;;;;;;39.43;21.43;100397.97;104610;1276;72269;-68
2022/08/13 09:07:02;;;;;;;13.90;8.70;;;;;;;39.23;21.50;100393.09;104361;1276;60485;-70
2022/08/13 09:09:58;;;;;;;8.30;2.20;;;;;;;39.11;21.84;100394.27;104512;1276;61244;-71
2022/08/13 09:12:50;;;;;;;7.90;3.00;;;;;;;38.87;21.87;100391.52;104505;1276;75496;-69
2022/08/13 09:15:40;;;;;;;9.50;1.80;;;;;;;38.62;22.10;100393.09;104645;1276;69383;-67
2022/08/13 09:18:33;;;;;;;7.50;2.20;;;;;;;38.70;22.35;100386.77;104424;1276;72778;-69
2022/08/13 09:21:22;;;;;;;7.70;3.50;;;;;;;38.80;22.12;100384.51;104503;1276;60837;-67
2022/08/13 09:24:15;;;;;;;6.80;1.40;;;;;;;38.96;21.84;100381.98;104383;1276;61024;-67
2022/08/13 09:27:06;;;;;;;8.50;3.10;;;;;;;39.09;21.52;100377.94;104496;1276;74486;-71
2022/08/13 09:29:56;;;;;;;10.00;1.80;;;;;;;39.09;21.39;100380.06;104796;1276;68065;-69
2022/08/13 09:32:49;;;;;;;6.80;1.60;;;;;;;38.91;21.61;100385.02;104663;1277;74018;-72
2022/08/13 09:35:42;;;;;;;9.30;1.10;;;;;;;38.76;21.61;100378.77;104676;1276;60444;-69
2022/08/13 09:38:34;;;;;;;10.10;2.30;;;;;;;38.66;21.76;100377.41;104621;1276;60640;-70
2022/08/13 09:41:32;;;;;;;7.50;2.20;;;;;;;38.75;21.79;100376.86;104415;1276;74726;-72
2022/08/13 09:44:28;;;;;;;6.10;1.90;;;;;;;39.02;21.59;100374.44;104865;1276;69197;-71
2022/08/13 09:47:24;;;;;;;5.20;1.20;;;;;;;39.11;21.19;100372.06;104654;1276;72835;-72
2022/08/13 09:50:32;;;;;;;6.10;1.60;;;;;;;39.07;21.16;100372.40;104755;1276;60473;-69
2022/08/13 09:53:20;;;;;;;6.20;1.40;;;;;;;39.20;21.23;100371.04;104424;1276;60601;-70
2022/08/13 09:56:08;;;;;;;5.80;1.50;;;;;;;39.15;20.84;100368.28;104964;1274;74722;-69
2022/08/13 09:58:58;;;;;;;8.00;1.50;;;;;;;39.14;20.94;100363.29;104616;1274;68972;-73
2022/08/13 10:01:49;;;;;;;5.50;1.20;;;;;;;39.03;20.91;100358.29;104844;1274;73437;-70
2022/08/13 10:04:45;;;;;;;7.00;1.20;;;;;;;39.14;21.11;100357.66;104641;1274;60575;-71
2022/08/13 10:07:34;;;;;;;5.60;1.50;;;;;;;39.12;20.72;100352.69;104860;1274;60688;-71
2022/08/13 10:10:36;;;;;;;10.00;3.30;;;;;;;39.31;20.35;100348.93;104722;1274;74482;-70
2022/08/13 10:13:24;;;;;;;7.60;1.70;;;;;;;39.27;19.95;100345.94;104791;1274;69092;-69
2022/08/13 10:16:33;;;;;;;6.20;1.40;;;;;;;39.40;20.24;100344.98;104742;1274;71726;-68
2022/08/13 10:19:21;;;;;;;6.80;2.00;;;;;;;39.45;20.01;100339.71;104702;1274;60683;-71
2022/08/13 10:22:11;;;;;;;6.80;2.60;;;;;;;39.43;20.27;100341.09;104921;1274;60555;-72
2022/08/13 10:25:00;;;;;;;7.50;1.40;;;;;;;39.40;19.99;100338.77;105066;1275;75335;-72
2022/08/13 10:27:50;;;;;;;7.10;2.10;;;;;;;39.23;20.11;100331.27;104854;1275;67441;-69
2022/08/13 10:30:42;;;;;;;8.70;1.90;;;;;;;39.08;20.25;100329.79;104662;1274;71635;-69
2022/08/13 10:33:54;;;;;;;8.10;1.50;;;;;;;38.85;20.50;100320.42;104957;1274;60496;-70
2022/08/13 10:36:45;;;;;;;7.00;1.10;;;;;;;38.58;20.77;100321.66;104663;1275;60484;-69
2022/08/13 10:39:33;;;;;;;8.10;1.50;;;;;;;38.40;20.81;100316.36;104663;1274;74541;-71
2022/08/13 10:42:44;;;;;;;6.10;1.10;;;;;;;38.43;20.59;100316.38;104896;1274;69138;-69
2022/08/13 10:45:35;;;;;;;6.30;1.50;;;;;;;38.43;20.48;100318.31;104742;1274;72252;-72
2022/08/13 10:48:25;;;;;;;8.20;2.80;;;;;;;38.61;20.40;100316.60;104733;1274;60811;-71
2022/08/13 10:51:13;;;;;;;19.30;11.40;;;;;;;38.45;20.30;100313.23;104920;1274;60971;-70
2022/08/13 10:54:14;;;;;;;15.60;10.80;;;;;;;38.45;20.76;100318.80;104648;1277;77752;-72
2022/08/13 10:57:18;;;;;;;9.50;4.10;;;;;;;38.65;20.58;100312.66;105084;1275;67494;-71
2022/08/13 11:00:09;;;;;;;10.80;1.60;;;;;;;38.85;20.20;100307.18;104683;1276;74195;-71
2022/08/13 11:02:57;;;;;;;8.40;2.40;;;;;;;39.00;20.34;100302.52;104605;1276;60522;-72
2022/08/13 11:05:47;;;;;;;7.80;1.50;;;;;;;39.21;20.14;100302.91;104663;1276;60453;-68
2022/08/13 11:08:39;;;;;;;7.30;2.30;;;;;;;39.32;19.97;100300.94;104647;1276;74199;-64
2022/08/13 11:11:49;;;;;;;7.40;1.40;;;;;;;39.22;19.88;100300.02;104717;1276;68556;-70
2022/08/13 11:14:42;;;;;;;6.30;1.50;;;;;;;39.28;19.77;100292.02;104476;1277;74273;-70
2022/08/13 11:17:30;;;;;;;7.70;1.30;;;;;;;39.16;19.76;100288.91;104628;1276;60588;-68
2022/08/13 11:21:02;;;;;;;6.40;1.10;;;;;;;39.12;19.99;100286.64;104706;1276;60477;-67
2022/08/13 11:23:46;;;;;;;8.80;1.40;;;;;;;38.95;19.97;100277.52;104823;1276;74865;-69
2022/08/13 11:26:40;;;;;;;7.60;1.50;;;;;;;38.67;20.42;100278.48;104504;1276;68329;-69
2022/08/13 11:29:30;;;;;;;7.90;1.30;;;;;;;38.23;20.75;100277.96;104496;1276;74095;-67
2022/08/13 11:32:24;;;;;;;7.20;1.20;;;;;;;37.87;21.03;100275.73;104845;1275;60614;-72
2022/08/13 11:35:14;;;;;;;7.00;1.50;;;;;;;37.53;21.76;100268.40;104753;1276;60466;-73
2022/08/13 11:38:08;;;;;;;6.50;1.50;;;;;;;37.13;22.26;100270.90;104480;1276;74441;-71
2022/08/13 11:40:59;;;;;;;6.10;1.30;;;;;;;36.90;22.72;100266.02;104649;1276;68537;-69
2022/08/13 11:43:49;;;;;;;6.20;1.10;;;;;;;36.68;22.77;100265.17;104701;1275;72470;-72
2022/08/13 11:46:45;;;;;;;6.00;1.30;;;;;;;36.21;23.65;100264.55;104652;1276;60919;-67
2022/08/13 11:49:33;;;;;;;8.40;1.30;;;;;;;35.72;24.13;100266.19;105456;1274;60507;-64
2022/08/13 11:52:21;;;;;;;5.70;1.20;;;;;;;35.18;24.84;100271.19;104847;1274;73745;-64
2022/08/13 11:55:14;;;;;;;6.90;1.50;;;;;;;34.69;25.53;100271.22;104445;1276;67070;-65
2022/08/13 11:58:07;;;;;;;6.00;1.30;;;;;;;34.41;25.97;100271.64;105159;1274;73322;-66
2022/08/13 12:01:18;;;;;;;5.40;1.10;;;;;;;34.00;26.65;100271.39;104567;1276;60536;-68
2022/08/13 12:04:12;;;;;;;5.70;1.10;;;;;;;33.48;27.28;100265.94;104712;1274;60647;-67
2022/08/13 12:07:05;;;;;;;8.40;1.40;;;;;;;32.84;27.55;100266.35;105051;1274;74496;-66
2022/08/13 12:09:54;;;;;;;7.70;1.50;;;;;;;32.25;28.82;100259.00;104468;1276;69163;-69
2022/08/13 12:12:46;;;;;;;8.10;1.40;;;;;;;31.87;29.27;100262.98;104709;1276;73113;-66
2022/08/13 12:15:38;;;;;;;6.10;1.70;;;;;;;31.45;30.11;100257.54;104660;1274;60426;-68
2022/08/13 12:18:45;;;;;;;7.90;1.50;;;;;;;31.09;30.52;100264.95;105151;1274;61658;-68
2022/08/13 12:21:53;;;;;;;6.80;1.50;;;;;;;30.79;31.45;100264.13;104641;1274;73450;-65
2022/08/13 12:24:42;;;;;;;8.80;1.60;;;;;;;30.41;31.74;100264.43;104939;1274;69409;-66
2022/08/13 12:27:50;;;;;;;7.50;1.40;;;;;;;30.12;32.62;100261.62;104666;1275;73857;-65
2022/08/13 12:30:40;;;;;;;6.60;1.40;;;;;;;29.94;32.45;100262.08;104886;1274;60458;-66
2022/08/13 12:33:31;;;;;;;9.50;1.80;;;;;;;29.76;33.17;100256.64;104658;1274;60496;-65
2022/08/13 12:36:27;;;;;;;7.20;1.50;;;;;;;29.65;33.40;100251.70;104682;1276;75051;-64
2022/08/13 12:39:16;;;;;;;5.70;1.30;;;;;;;29.56;33.77;100245.90;104669;1274;69104;-65
2022/08/13 12:42:09;;;;;;;7.90;1.70;;;;;;;29.51;34.00;100245.36;104656;1274;70585;-65
2022/08/13 12:45:00;;;;;;;8.00;1.90;;;;;;;29.41;34.54;100247.23;104618;1274;60528;-66
2022/08/13 12:48:14;;;;;;;5.90;1.70;;;;;;;29.29;34.78;100248.81;104889;1274;60531;-66
2022/08/13 12:51:03;;;;;;;7.50;1.70;;;;;;;29.25;35.18;100253.42;104739;1275;74478;-67
2022/08/13 12:53:51;;;;;;;6.80;1.60;;;;;;;29.09;35.71;100247.82;104684;1274;68898;-64
2022/08/13 12:56:46;;;;;;;6.90;1.70;;;;;;;29.06;35.56;100250.98;104708;1274;73458;-65
2022/08/13 12:59:36;;;;;;;9.00;2.00;;;;;;;28.94;36.01;100253.98;104649;1275;60514;-66
2022/08/13 13:02:35;;;;;;;7.00;2.00;;;;;;;28.88;36.10;100257.73;104805;1275;61516;-66
2022/08/13 13:05:24;;;;;;;8.20;1.80;;;;;;;28.82;36.07;100254.26;104605;1274;75082;-64
2022/08/13 13:08:26;;;;;;;7.00;1.60;;;;;;;28.75;36.49;100254.50;104592;1274;65613;-67
2022/08/13 13:11:23;;;;;;;7.00;1.90;;;;;;;28.66;37.05;100256.11;104688;1276;71587;-63
2022/08/13 13:14:23;;;;;;;7.90;1.70;;;;;;;28.55;37.22;100249.05;104977;1274;60463;-67
2022/08/13 13:17:26;;;;;;;6.80;1.70;;;;;;;28.40;37.28;100245.81;104652;1275;60370;-66
2022/08/13 13:20:34;;;;;;;7.20;1.80;;;;;;;28.35;37.39;100245.35;104618;1274;75150;-67
2022/08/13 13:23:27;;;;;;;8.60;1.70;;;;;;;28.36;38.36;100241.57;104728;1274;69692;-65
2022/08/13 13:26:26;;;;;;;6.60;1.90;;;;;;;28.39;38.37;100238.33;104659;1277;73363;-65
2022/08/13 13:29:15;;;;;;;7.20;2.30;;;;;;;28.29;38.76;100238.02;104639;1275;60884;-67
2022/08/13 13:32:13;;;;;;;9.70;2.70;;;;;;;28.14;39.30;100236.20;104659;1274;60486;-65
2022/08/13 13:35:21;;;;;;;7.60;1.90;;;;;;;28.16;39.60;100234.33;104824;1274;75521;-66
2022/08/13 13:38:29;;;;;;;7.40;1.90;;;;;;;28.08;39.74;100230.41;104647;1275;66781;-65
2022/08/13 13:41:17;;;;;;;9.50;2.20;;;;;;;28.06;39.97;100231.32;104618;1274;73444;-64
2022/08/13 13:44:05;;;;;;;6.80;1.90;;;;;;;27.91;40.59;100231.64;104659;1274;60604;-67
2022/08/13 13:47:13;;;;;;;8.80;2.00;;;;;;;27.71;40.62;100234.91;104873;1275;60455;-65
2022/08/13 13:50:06;;;;;;;6.40;2.00;;;;;;;27.55;41.04;100233.88;104600;1275;75096;-64
2022/08/13 13:53:08;;;;;;;8.10;2.20;;;;;;;27.46;41.32;100232.25;105018;1274;68690;-65